Terminal Aerodrome Forecast
Issued by NWS

Home | Current Version | Previous Version | Text Only | Print | Product List | Glossary On
Versions: 1 2 3 4 5 6 7 8 9 10 11 12 13 14 15 16 17 18
000
FTUS43 KICT 241100
TAFRSL
TAF
KRSL 241138Z 2412/2512 33013KT P6SM OVC100
     FM241400 34022G30KT P6SM BKN080
     FM241700 34022G30KT P6SM SCT100
     FM242300 34013KT P6SM SKC=

USA.gov is the U.S. government's official web portal to all federal, state and local government web resources and services.